createdAt,value
2023-08-08T00:02:03.861Z,82.27
2023-08-08T00:04:31.828Z,82.36
2023-08-08T00:07:01.186Z,82.82
2023-08-08T00:09:29.241Z,82.62
2023-08-08T00:11:58.454Z,82.62
2023-08-08T00:14:26.673Z,82.83
2023-08-08T00:16:54.652Z,82.78
2023-08-08T00:19:22.693Z,82.56
2023-08-08T00:21:50.654Z,82.73
2023-08-08T00:24:19.999Z,82.80
2023-08-08T00:26:47.974Z,82.91
2023-08-08T00:29:15.942Z,82.17
2023-08-08T00:31:43.972Z,81.54
2023-08-08T00:34:12.030Z,81.54
2023-08-08T00:36:40.023Z,82.08
2023-08-08T00:39:09.032Z,81.97
2023-08-08T00:41:38.356Z,82.05
2023-08-08T00:44:06.325Z,81.94
2023-08-08T00:46:34.598Z,82.00
2023-08-08T00:49:02.472Z,82.27
2023-08-08T00:51:30.508Z,82.11
2023-08-08T00:53:59.253Z,81.82
2023-08-08T00:56:28.105Z,81.63
2023-08-08T00:58:57.491Z,81.47
2023-08-08T01:01:25.516Z,81.63
2023-08-08T01:03:54.290Z,81.82
2023-08-08T01:06:30.857Z,81.96
2023-08-08T01:09:02.651Z,81.96
2023-08-08T01:11:32.811Z,81.83
2023-08-08T01:14:04.139Z,82.06
2023-08-08T01:16:32.824Z,82.53
2023-08-08T01:19:01.400Z,82.35
2023-08-08T01:21:32.028Z,82.14
2023-08-08T01:24:08.616Z,81.82
2023-08-08T01:26:38.102Z,82.60
2023-08-08T01:29:06.192Z,81.79
2023-08-08T01:31:34.208Z,81.63
2023-08-08T01:34:02.282Z,81.58
2023-08-08T01:36:36.642Z,81.46
2023-08-08T01:39:06.933Z,81.56
2023-08-08T01:41:36.023Z,81.54
2023-08-08T01:44:07.402Z,82.04
2023-08-08T01:46:37.727Z,81.76
2023-08-08T01:49:05.755Z,81.81
2023-08-08T01:51:33.800Z,81.36
2023-08-08T01:54:01.803Z,81.38
2023-08-08T01:56:29.769Z,80.96
2023-08-08T01:58:57.764Z,81.36
2023-08-08T02:01:27.227Z,81.37
2023-08-08T02:03:55.497Z,81.54
2023-08-08T02:06:24.184Z,81.59
2023-08-08T02:08:52.159Z,81.44
2023-08-08T02:11:20.318Z,81.58
2023-08-08T02:13:48.297Z,81.87
2023-08-08T02:16:16.317Z,82.06
2023-08-08T02:18:45.704Z,82.00
2023-08-08T02:21:13.770Z,82.14
2023-08-08T02:23:41.822Z,82.21
2023-08-08T02:26:09.808Z,82.51
2023-08-08T02:28:37.944Z,82.78
2023-08-08T02:31:05.957Z,82.85
2023-08-08T02:33:33.931Z,82.42
2023-08-08T02:36:03.319Z,82.84
2023-08-08T02:38:31.336Z,82.95
2023-08-08T02:40:59.342Z,83.09
2023-08-08T02:43:27.359Z,83.30
2023-08-08T02:45:55.407Z,83.24
2023-08-08T02:48:23.424Z,83.44
2023-08-08T02:50:51.427Z,83.55
2023-08-08T02:53:20.784Z,83.42
2023-08-08T02:55:49.315Z,83.31
2023-08-08T02:58:17.311Z,83.76
2023-08-08T03:00:45.285Z,83.56
2023-08-08T03:03:13.269Z,83.75
2023-08-08T03:05:41.324Z,83.80
2023-08-08T03:08:09.331Z,84.00
2023-08-08T03:10:39.636Z,83.72
2023-08-08T03:13:07.618Z,83.89
2023-08-08T03:15:36.573Z,83.89
2023-08-08T03:18:05.310Z,84.21
2023-08-08T03:20:33.358Z,84.22
2023-08-08T03:23:01.331Z,84.62
2023-08-08T03:25:29.281Z,84.95
2023-08-08T03:27:58.676Z,85.22
2023-08-08T03:30:26.721Z,85.00
2023-08-08T03:32:54.826Z,85.08
2023-08-08T03:35:22.978Z,84.88
2023-08-08T03:37:51.132Z,85.09
2023-08-08T03:40:22.115Z,85.01
2023-08-08T03:42:50.117Z,84.97
2023-08-08T03:45:19.762Z,85.08
2023-08-08T03:47:47.810Z,84.56
2023-08-08T03:50:15.929Z,84.76
2023-08-08T03:52:43.937Z,84.51
2023-08-08T03:55:12.108Z,85.02
2023-08-08T03:57:40.085Z,84.49
2023-08-08T04:00:09.760Z,84.53
2023-08-08T04:02:39.723Z,84.73
2023-08-08T04:05:08.478Z,84.64
2023-08-08T04:07:37.178Z,85.20
2023-08-08T04:10:07.693Z,85.23
2023-08-08T04:12:35.737Z,85.35
2023-08-08T04:15:03.940Z,84.96
2023-08-08T04:17:34.800Z,85.04
2023-08-08T04:20:06.718Z,85.29
2023-08-08T04:22:36.955Z,85.11
2023-08-08T04:25:07.359Z,85.24
2023-08-08T04:27:35.333Z,85.40
2023-08-08T04:30:04.162Z,85.52
2023-08-08T04:32:32.233Z,85.68
2023-08-08T04:35:00.240Z,85.55
2023-08-08T04:37:29.675Z,85.38
2023-08-08T04:39:57.901Z,85.38
2023-08-08T04:42:25.964Z,85.38
2023-08-08T04:44:54.011Z,85.78
2023-08-08T04:47:22.085Z,85.95
2023-08-08T04:49:50.100Z,85.70
2023-08-08T04:52:18.145Z,85.87
2023-08-08T04:54:47.559Z,86.24
2023-08-08T04:57:15.539Z,86.18
2023-08-08T04:59:45.180Z,86.30
2023-08-08T05:02:13.182Z,86.25
2023-08-08T05:04:41.203Z,86.52
2023-08-08T05:07:09.180Z,86.43
2023-08-08T05:09:37.195Z,86.48
2023-08-08T05:12:07.341Z,86.94
2023-08-08T05:14:35.430Z,86.92
2023-08-08T05:17:04.296Z,87.04
2023-08-08T05:19:32.352Z,87.17
2023-08-08T05:22:00.736Z,87.58
2023-08-08T05:24:29.099Z,87.54
2023-08-08T05:26:57.210Z,87.55
2023-08-08T05:29:26.728Z,87.54
2023-08-08T05:31:54.716Z,87.39
2023-08-08T05:34:22.693Z,87.31
2023-08-08T05:36:58.899Z,87.82
2023-08-08T05:39:34.094Z,88.23
2023-08-08T05:42:02.457Z,88.31
2023-08-08T05:44:32.116Z,88.90
2023-08-08T05:47:00.114Z,88.57
2023-08-08T05:49:28.151Z,89.10
2023-08-08T05:51:56.262Z,89.26
2023-08-08T05:54:24.301Z,89.49
2023-08-08T05:56:52.313Z,89.66
2023-08-08T05:59:20.545Z,89.84
2023-08-08T06:01:49.997Z,89.93
2023-08-08T06:04:18.085Z,90.20
2023-08-08T06:06:46.171Z,90.29
2023-08-08T06:09:14.150Z,90.43
2023-08-08T06:11:42.108Z,90.32
2023-08-08T06:14:10.203Z,90.26
2023-08-08T06:16:38.284Z,90.35
2023-08-08T06:19:08.054Z,90.36
2023-08-08T06:21:36.054Z,90.42
2023-08-08T06:24:04.026Z,90.26
2023-08-08T06:26:32.122Z,90.07
2023-08-08T06:29:00.261Z,90.19
2023-08-08T06:31:28.360Z,89.96
2023-08-08T06:33:56.365Z,90.12
2023-08-08T06:36:25.715Z,90.31
2023-08-08T06:38:53.733Z,89.96
2023-08-08T06:41:21.699Z,90.08
2023-08-08T06:43:58.637Z,90.39
2023-08-08T06:46:26.861Z,90.28
2023-08-08T06:48:58.235Z,90.59
2023-08-08T06:51:27.729Z,90.64
2023-08-08T06:53:55.777Z,90.63
2023-08-08T06:56:23.935Z,90.72
2023-08-08T06:58:51.967Z,90.94
2023-08-08T07:01:20.293Z,90.81
2023-08-08T07:03:48.965Z,90.83
2023-08-08T07:06:18.748Z,90.49
2023-08-08T07:08:48.134Z,90.26
2023-08-08T07:11:16.290Z,90.20
2023-08-08T07:13:44.289Z,90.17
2023-08-08T07:16:12.318Z,89.70
2023-08-08T07:18:40.384Z,89.51
2023-08-08T07:21:08.444Z,89.39
2023-08-08T07:23:36.516Z,89.12
2023-08-08T07:26:05.901Z,89.19
2023-08-08T07:28:34.120Z,89.32
2023-08-08T07:31:02.135Z,89.29
2023-08-08T07:33:30.165Z,89.09
2023-08-08T07:35:58.194Z,89.02
2023-08-08T07:38:26.426Z,88.57
2023-08-08T07:40:54.391Z,87.88
2023-08-08T07:43:23.738Z,88.19
2023-08-08T07:45:51.753Z,88.33
2023-08-08T07:48:19.824Z,87.73
2023-08-08T07:50:48.005Z,88.33
2023-08-08T07:53:15.948Z,88.62
2023-08-08T07:55:44.088Z,88.12
2023-08-08T07:58:12.256Z,87.86
2023-08-08T08:00:42.161Z,87.20
2023-08-08T08:03:10.363Z,87.71
2023-08-08T08:05:38.777Z,87.64
2023-08-08T08:08:07.032Z,87.29
2023-08-08T08:10:35.078Z,86.96
2023-08-08T08:13:03.388Z,87.09
2023-08-08T08:15:31.934Z,87.38
2023-08-08T08:18:01.537Z,86.76
2023-08-08T08:20:29.559Z,85.33
2023-08-08T08:22:57.617Z,85.27
2023-08-08T08:25:25.695Z,85.95
2023-08-08T08:27:53.686Z,84.24
2023-08-08T08:30:21.790Z,83.58
2023-08-08T08:32:49.942Z,84.11
2023-08-08T08:35:19.586Z,83.72
2023-08-08T08:37:47.605Z,83.88
2023-08-08T08:40:16.453Z,83.67
2023-08-08T08:42:45.444Z,83.04
2023-08-08T08:45:14.894Z,83.46
2023-08-08T08:47:45.654Z,82.94
2023-08-08T08:50:13.670Z,82.96
2023-08-08T08:52:45.353Z,82.29
2023-08-08T08:55:14.842Z,81.21
2023-08-08T08:57:45.644Z,81.10
2023-08-08T09:00:16.067Z,81.26
2023-08-08T09:02:47.691Z,81.55
2023-08-08T09:05:17.513Z,81.94
2023-08-08T09:07:46.933Z,82.37
2023-08-08T09:10:17.806Z,81.27
2023-08-08T09:12:46.309Z,81.70
2023-08-08T09:15:14.949Z,81.86
2023-08-08T09:17:48.853Z,80.80
2023-08-08T09:20:20.123Z,79.62
2023-08-08T09:22:49.594Z,80.24
2023-08-08T09:25:17.790Z,80.63
2023-08-08T09:27:46.655Z,79.99
2023-08-08T09:30:15.222Z,80.45
2023-08-08T09:32:45.543Z,81.48
2023-08-08T09:35:13.818Z,80.65
2023-08-08T09:37:41.892Z,81.31
2023-08-08T09:40:12.846Z,81.31
2023-08-08T09:42:42.461Z,82.00
2023-08-08T09:45:11.988Z,82.32
2023-08-08T09:47:40.466Z,82.32
2023-08-08T09:50:09.754Z,82.34
2023-08-08T09:52:40.208Z,83.86
2023-08-08T09:55:09.062Z,85.08
2023-08-08T09:57:40.781Z,85.22
2023-08-08T10:00:13.223Z,86.13
2023-08-08T10:02:41.660Z,85.69
2023-08-08T10:05:12.710Z,86.56
2023-08-08T10:07:41.591Z,87.05
2023-08-08T10:10:11.440Z,87.74
2023-08-08T10:12:42.497Z,87.97
2023-08-08T10:15:11.940Z,87.70
2023-08-08T10:17:40.377Z,85.79
2023-08-08T10:20:12.616Z,85.67
2023-08-08T10:22:45.927Z,86.02
2023-08-08T10:25:20.931Z,85.40
2023-08-08T10:27:50.445Z,85.72
2023-08-08T10:30:18.515Z,86.35
2023-08-08T10:32:48.521Z,85.64
2023-08-08T10:35:17.689Z,85.34
2023-08-08T10:37:55.504Z,85.79
2023-08-08T10:40:23.656Z,84.09
2023-08-08T10:42:54.448Z,84.14
2023-08-08T10:45:22.637Z,84.18
2023-08-08T10:47:50.690Z,84.64
2023-08-08T10:50:25.067Z,84.05
2023-08-08T10:52:54.175Z,83.53
2023-08-08T10:55:23.339Z,83.20
2023-08-08T10:58:02.378Z,83.14
2023-08-08T11:00:32.892Z,82.97
2023-08-08T11:03:01.667Z,83.53
2023-08-08T11:05:31.935Z,84.00
2023-08-08T11:08:00.402Z,83.52
2023-08-08T11:10:32.182Z,81.86
2023-08-08T11:13:06.592Z,81.64
2023-08-08T11:15:40.008Z,82.66
2023-08-08T11:18:09.518Z,82.03
2023-08-08T11:20:39.883Z,82.62
2023-08-08T11:23:11.505Z,83.30
2023-08-08T11:25:42.904Z,83.61
2023-08-08T11:28:13.940Z,83.18
2023-08-08T11:30:46.103Z,83.32
2023-08-08T11:33:16.886Z,83.96
2023-08-08T11:35:50.171Z,83.63
2023-08-08T11:38:19.971Z,83.66
2023-08-08T11:40:48.102Z,84.61
2023-08-08T11:43:17.595Z,84.48
2023-08-08T11:45:45.841Z,84.47
2023-08-08T11:48:13.699Z,83.68
2023-08-08T11:50:44.421Z,84.06
2023-08-08T11:53:13.108Z,83.79
2023-08-08T11:55:42.416Z,83.58
2023-08-08T11:58:15.892Z,84.12
2023-08-08T12:00:47.433Z,84.19
2023-08-08T12:03:19.327Z,83.44
2023-08-08T12:05:48.416Z,83.35
2023-08-08T12:08:20.342Z,83.14
2023-08-08T12:10:53.986Z,83.47
2023-08-08T12:13:23.666Z,83.13
2023-08-08T12:15:56.424Z,83.52
2023-08-08T12:18:24.707Z,83.48
2023-08-08T12:20:52.830Z,84.08
2023-08-08T12:23:20.846Z,83.80
2023-08-08T12:25:49.046Z,83.46
2023-08-08T12:28:17.006Z,82.46
2023-08-08T12:30:45.015Z,83.39
2023-08-08T12:33:14.587Z,82.97
2023-08-08T12:35:42.915Z,82.60
2023-08-08T12:38:11.552Z,82.98
2023-08-08T12:40:39.674Z,82.50
2023-08-08T12:43:07.673Z,82.62
2023-08-08T12:45:35.951Z,83.16
2023-08-08T12:48:03.863Z,83.10
2023-08-08T12:50:33.276Z,83.83
2023-08-08T12:53:01.429Z,84.04
2023-08-08T12:55:29.424Z,84.10
2023-08-08T12:57:57.427Z,84.88
2023-08-08T13:00:25.880Z,85.17
2023-08-08T13:02:53.926Z,85.75
2023-08-08T13:05:22.239Z,85.42
2023-08-08T13:07:51.601Z,85.17
2023-08-08T13:10:21.208Z,84.53
2023-08-08T13:12:49.360Z,84.95
2023-08-08T13:15:17.510Z,84.10
2023-08-08T13:17:46.559Z,83.83
2023-08-08T13:20:14.800Z,83.22
2023-08-08T13:22:43.880Z,83.58
2023-08-08T13:25:17.165Z,83.37
2023-08-08T13:27:45.754Z,83.54
2023-08-08T13:30:16.730Z,83.81
2023-08-08T13:32:45.024Z,83.59
2023-08-08T13:35:12.835Z,83.64
2023-08-08T13:37:40.968Z,82.94
2023-08-08T13:40:10.178Z,83.21
2023-08-08T13:42:39.639Z,83.24
2023-08-08T13:45:09.357Z,82.98
2023-08-08T13:47:37.456Z,83.07
2023-08-08T13:50:06.088Z,83.36
2023-08-08T13:52:34.825Z,82.57
2023-08-08T13:55:02.986Z,83.07
2023-08-08T13:57:31.200Z,82.59
2023-08-08T14:00:00.760Z,82.35
2023-08-08T14:02:28.935Z,82.80
2023-08-08T14:04:56.797Z,82.53
2023-08-08T14:07:24.819Z,82.66
2023-08-08T14:09:55.949Z,80.28
2023-08-08T14:12:23.913Z,78.38
2023-08-08T14:14:51.962Z,76.75
2023-08-08T14:17:21.338Z,77.30
2023-08-08T14:19:49.360Z,74.94
2023-08-08T14:22:17.320Z,74.02
2023-08-08T14:24:45.398Z,74.71
2023-08-08T14:27:13.929Z,75.49
2023-08-08T14:29:41.971Z,75.84
2023-08-08T14:32:10.180Z,75.92
2023-08-08T14:34:40.603Z,76.39
2023-08-08T14:37:11.253Z,77.02
2023-08-08T14:39:39.488Z,78.37
2023-08-08T14:42:07.849Z,78.89
2023-08-08T14:44:35.711Z,77.44
2023-08-08T14:47:04.100Z,78.11
2023-08-08T14:49:32.331Z,78.87
2023-08-08T14:52:02.128Z,79.24
2023-08-08T14:54:30.653Z,79.01
2023-08-08T14:56:59.664Z,77.97
2023-08-08T14:59:27.981Z,78.00
2023-08-08T15:01:56.237Z,78.52
2023-08-08T15:04:24.280Z,78.54
2023-08-08T15:06:52.613Z,78.50
2023-08-08T15:09:22.470Z,78.37
2023-08-08T15:11:50.487Z,78.33
2023-08-08T15:14:18.537Z,78.87
2023-08-08T15:16:51.279Z,78.78
2023-08-08T15:19:19.515Z,79.02
2023-08-08T15:21:47.811Z,78.45
2023-08-08T15:24:15.568Z,78.80
2023-08-08T15:26:44.985Z,78.47
2023-08-08T15:29:15.649Z,78.88
2023-08-08T15:31:45.037Z,79.27
2023-08-08T15:34:13.155Z,78.40
2023-08-08T15:36:41.116Z,77.98
2023-08-08T15:39:09.190Z,78.52
2023-08-08T15:41:37.735Z,78.75
2023-08-08T15:44:07.667Z,77.66
2023-08-08T15:46:35.824Z,76.89
2023-08-08T15:49:05.628Z,77.50
2023-08-08T15:51:33.579Z,78.16
2023-08-08T15:54:01.581Z,77.91
2023-08-08T15:56:29.644Z,78.65
2023-08-08T15:58:58.208Z,79.53
2023-08-08T16:01:27.825Z,80.59
2023-08-08T16:03:55.837Z,81.65
2023-08-08T16:06:25.247Z,81.68
2023-08-08T16:08:53.975Z,81.62
2023-08-08T16:11:22.021Z,80.85
2023-08-08T16:13:50.040Z,80.82
2023-08-08T16:16:18.217Z,80.48
2023-08-08T16:18:47.796Z,80.90
2023-08-08T16:21:15.852Z,80.44
2023-08-08T16:23:44.029Z,79.25
2023-08-08T16:26:12.052Z,79.27
2023-08-08T16:28:40.225Z,79.45
2023-08-08T16:31:08.827Z,79.23
2023-08-08T16:33:37.138Z,78.50
2023-08-08T16:36:09.103Z,78.59
2023-08-08T16:38:37.773Z,78.54
2023-08-08T16:41:06.116Z,78.83
2023-08-08T16:43:37.060Z,79.05
2023-08-08T16:46:05.690Z,78.69
2023-08-08T16:48:34.122Z,79.39
2023-08-08T16:51:02.398Z,79.74
2023-08-08T16:53:31.830Z,80.13
2023-08-08T16:56:03.797Z,81.00
2023-08-08T16:58:31.946Z,80.20
2023-08-08T17:01:00.271Z,79.98
2023-08-08T17:03:28.694Z,79.66
2023-08-08T17:05:56.477Z,79.51
2023-08-08T17:08:24.484Z,80.52
2023-08-08T17:10:55.625Z,81.48
2023-08-08T17:13:23.806Z,81.52
2023-08-08T17:15:51.924Z,81.96
2023-08-08T17:18:19.945Z,81.98
2023-08-08T17:20:48.002Z,81.08
2023-08-08T17:23:15.996Z,80.57
2023-08-08T17:25:44.020Z,80.57
2023-08-08T17:28:13.413Z,80.12
2023-08-08T17:30:41.526Z,79.43
2023-08-08T17:33:09.520Z,79.44
2023-08-08T17:35:37.575Z,79.86
2023-08-08T17:38:05.749Z,80.32
2023-08-08T17:40:33.767Z,80.06
2023-08-08T17:43:01.746Z,79.90
2023-08-08T17:45:31.256Z,79.92
2023-08-08T17:47:59.378Z,80.41
2023-08-08T17:50:27.424Z,80.39
2023-08-08T17:52:55.437Z,80.16
2023-08-08T17:55:23.637Z,80.19
2023-08-08T17:57:51.744Z,80.11
2023-08-08T18:00:20.322Z,80.07
2023-08-08T18:02:49.815Z,79.85
2023-08-08T18:05:17.853Z,80.20
2023-08-08T18:07:45.852Z,79.99
2023-08-08T18:10:13.880Z,80.24
2023-08-08T18:12:42.846Z,80.32
2023-08-08T18:15:11.759Z,80.28
2023-08-08T18:17:39.776Z,80.35
2023-08-08T18:20:10.948Z,80.65
2023-08-08T18:22:38.951Z,81.01
2023-08-08T18:25:06.625Z,80.23
2023-08-08T18:27:34.639Z,80.87
2023-08-08T18:30:02.878Z,80.47
2023-08-08T18:32:33.603Z,80.66
2023-08-08T18:35:01.730Z,80.95
2023-08-08T18:37:31.375Z,80.52
2023-08-08T18:39:59.443Z,80.84
2023-08-08T18:42:27.556Z,80.39
2023-08-08T18:44:55.593Z,79.91
2023-08-08T18:47:23.643Z,80.10
2023-08-08T18:49:51.680Z,80.21
2023-08-08T18:52:19.702Z,80.03
2023-08-08T18:54:49.328Z,80.74
2023-08-08T18:57:17.458Z,80.77
2023-08-08T18:59:45.509Z,80.82
2023-08-08T19:02:13.545Z,81.39
2023-08-08T19:04:41.641Z,81.13
2023-08-08T19:07:09.729Z,81.94
2023-08-08T19:09:37.816Z,81.42
2023-08-08T19:12:07.801Z,81.71
2023-08-08T19:14:35.837Z,81.85
2023-08-08T19:17:03.892Z,82.37
2023-08-08T19:19:51.910Z,82.82
2023-08-08T19:22:26.612Z,83.18
2023-08-08T19:24:54.665Z,82.13
2023-08-08T19:28:11.607Z,82.19
2023-08-08T19:30:41.118Z,81.75
2023-08-08T19:33:10.000Z,82.60
2023-08-08T19:35:37.995Z,82.82
2023-08-08T19:38:06.068Z,83.86
2023-08-08T19:40:34.287Z,83.95
2023-08-08T19:43:02.375Z,83.87
2023-08-08T19:45:30.431Z,83.99
2023-08-08T19:47:59.967Z,84.46
2023-08-08T19:50:28.084Z,84.05
2023-08-08T19:52:56.276Z,84.24
2023-08-08T19:55:24.334Z,84.00
2023-08-08T19:57:52.368Z,84.32
2023-08-08T20:00:21.318Z,84.59
2023-08-08T20:02:49.395Z,84.60
2023-08-08T20:05:19.029Z,84.63
2023-08-08T20:07:47.629Z,84.67
2023-08-08T20:10:15.825Z,85.33
2023-08-08T20:12:44.244Z,85.19
2023-08-08T20:15:13.416Z,85.16
2023-08-08T20:17:43.515Z,85.47
2023-08-08T20:20:12.619Z,85.80
2023-08-08T20:22:41.978Z,85.54
2023-08-08T20:25:10.506Z,85.74
2023-08-08T20:27:38.497Z,85.98
2023-08-08T20:30:08.207Z,86.38
2023-08-08T20:32:36.734Z,86.08
2023-08-08T20:35:04.949Z,86.30
2023-08-08T20:37:32.931Z,86.23
2023-08-08T20:40:02.321Z,86.50
2023-08-08T20:42:30.294Z,86.67
2023-08-08T20:44:58.327Z,86.62
2023-08-08T20:47:26.377Z,86.94
2023-08-08T20:49:54.448Z,86.49
2023-08-08T20:52:22.426Z,86.32
2023-08-08T20:54:50.685Z,87.13
2023-08-08T20:57:20.080Z,87.03
2023-08-08T20:59:48.100Z,87.15
2023-08-08T21:02:17.259Z,86.77
2023-08-08T21:04:46.221Z,86.90
2023-08-08T21:07:15.903Z,86.86
2023-08-08T21:09:43.940Z,87.14
2023-08-08T21:12:13.048Z,87.28
2023-08-08T21:14:42.668Z,86.44
2023-08-08T21:17:11.245Z,86.64
2023-08-08T21:19:39.521Z,86.78
2023-08-08T21:22:07.952Z,86.98
2023-08-08T21:24:35.723Z,87.25
2023-08-08T21:27:04.591Z,87.20
2023-08-08T21:29:32.832Z,87.24
2023-08-08T21:32:02.266Z,87.72
2023-08-08T21:34:33.276Z,87.34
2023-08-08T21:37:01.562Z,87.53
2023-08-08T21:39:29.616Z,87.72
2023-08-08T21:41:57.636Z,87.62
2023-08-08T21:44:25.788Z,87.85
2023-08-08T21:46:53.904Z,87.29
2023-08-08T21:49:23.464Z,87.88
2023-08-08T21:51:51.678Z,88.23
2023-08-08T21:54:19.655Z,88.19
2023-08-08T21:56:47.685Z,87.90
2023-08-08T21:59:15.825Z,87.99
2023-08-08T22:01:43.837Z,87.90
2023-08-08T22:04:12.007Z,87.52
2023-08-08T22:06:42.578Z,88.12
2023-08-08T22:09:10.958Z,87.86
2023-08-08T22:11:39.031Z,87.77
2023-08-08T22:14:07.081Z,87.47
2023-08-08T22:16:35.190Z,87.18
2023-08-08T22:19:04.467Z,87.64
2023-08-08T22:21:32.832Z,87.41
2023-08-08T22:24:02.340Z,87.56
2023-08-08T22:26:30.396Z,87.31
2023-08-08T22:28:58.616Z,87.83
2023-08-08T22:31:26.584Z,87.16
2023-08-08T22:33:54.563Z,87.02
2023-08-08T22:36:22.905Z,87.10
2023-08-08T22:38:52.119Z,86.71
2023-08-08T22:41:21.582Z,86.48
2023-08-08T22:43:49.597Z,86.60
2023-08-08T22:46:17.683Z,86.54
2023-08-08T22:48:45.748Z,86.48
2023-08-08T22:51:13.742Z,86.71
2023-08-08T22:53:43.787Z,86.45
2023-08-08T22:56:12.284Z,87.38
2023-08-08T22:58:41.435Z,87.34
2023-08-08T23:01:09.449Z,87.27
2023-08-08T23:03:38.823Z,87.17
2023-08-08T23:06:06.961Z,87.53
2023-08-08T23:08:34.949Z,87.83
2023-08-08T23:11:02.915Z,87.71
2023-08-08T23:13:30.986Z,87.59
2023-08-08T23:16:00.337Z,87.55
2023-08-08T23:18:28.393Z,88.31
2023-08-08T23:20:56.381Z,88.22
2023-08-08T23:23:24.445Z,88.58
2023-08-08T23:25:53.212Z,88.67
2023-08-08T23:28:21.836Z,88.31
2023-08-08T23:30:50.056Z,88.77
2023-08-08T23:33:19.806Z,88.78
2023-08-08T23:35:47.878Z,88.58
2023-08-08T23:38:15.883Z,88.32
2023-08-08T23:40:43.910Z,87.20
2023-08-08T23:43:11.990Z,86.81
2023-08-08T23:45:40.162Z,87.48
2023-08-08T23:48:08.473Z,86.70
2023-08-08T23:50:37.902Z,86.62
2023-08-08T23:53:05.980Z,86.34
2023-08-08T23:55:34.169Z,85.72
2023-08-08T23:58:02.244Z,85.39
